Terminal Aerodrome Forecast
Issued by NWS Columbia, SC

Home | Current Version | Previous Version | Text Only | Print | Product List | Glossary On
Versions: 1 2 3 4 5 6 7 8 9 10 11 12 13 14 15 16 17 18 19 20 21 22 23 24 25 26 27 28 29 30
535
FTUS42 KCAE 310700 AAA
TAFCAE
TAF AMD
KCAE 310700Z 3107/0106 VRB04KT P6SM BKN009
     FM311300 35005KT P6SM SCT015 BKN040
     FM311800 01007KT P6SM SCT050 BKN150
     FM010000 VRB03KT P6SM SCT250=

USA.gov is the U.S. government's official web portal to all federal, state and local government web resources and services.